sensor_id;sensor_type;location;lat;lon;timestamp;P1;durP1;ratioP1;P2;durP2;ratioP2
18997;SDS011;9632;51.018;4.284;2022-07-17T00:02:06;2.80;;;1.40;;
18997;SDS011;9632;51.018;4.284;2022-07-17T00:04:31;5.18;;;1.67;;
18997;SDS011;9632;51.018;4.284;2022-07-17T00:06:57;2.45;;;1.23;;
18997;SDS011;9632;51.018;4.284;2022-07-17T00:09:23;3.20;;;1.52;;
18997;SDS011;9632;51.018;4.284;2022-07-17T00:11:49;4.75;;;1.77;;
18997;SDS011;9632;51.018;4.284;2022-07-17T00:14:14;4.03;;;2.13;;
18997;SDS011;9632;51.018;4.284;2022-07-17T00:16:40;5.22;;;1.70;;
18997;SDS011;9632;51.018;4.284;2022-07-17T00:19:05;4.63;;;1.75;;
18997;SDS011;9632;51.018;4.284;2022-07-17T00:21:32;3.92;;;1.60;;
18997;SDS011;9632;51.018;4.284;2022-07-17T00:23:57;6.05;;;1.83;;
18997;SDS011;9632;51.018;4.284;2022-07-17T00:26:23;4.63;;;1.70;;
18997;SDS011;9632;51.018;4.284;2022-07-17T00:28:49;5.47;;;1.63;;
18997;SDS011;9632;51.018;4.284;2022-07-17T00:31:14;4.85;;;1.38;;
18997;SDS011;9632;51.018;4.284;2022-07-17T00:33:40;6.22;;;1.90;;
18997;SDS011;9632;51.018;4.284;2022-07-17T00:36:06;2.90;;;1.40;;
18997;SDS011;9632;51.018;4.284;2022-07-17T00:38:32;4.90;;;1.50;;
18997;SDS011;9632;51.018;4.284;2022-07-17T00:40:58;2.88;;;1.45;;
18997;SDS011;9632;51.018;4.284;2022-07-17T00:43:24;3.65;;;1.48;;
18997;SDS011;9632;51.018;4.284;2022-07-17T00:45:55;5.20;;;1.70;;
18997;SDS011;9632;51.018;4.284;2022-07-17T00:48:21;4.78;;;1.92;;
18997;SDS011;9632;51.018;4.284;2022-07-17T00:50:47;6.60;;;1.75;;
18997;SDS011;9632;51.018;4.284;2022-07-17T00:53:13;4.30;;;1.70;;
18997;SDS011;9632;51.018;4.284;2022-07-17T00:55:39;4.50;;;1.80;;
18997;SDS011;9632;51.018;4.284;2022-07-17T00:58:06;3.80;;;1.67;;
18997;SDS011;9632;51.018;4.284;2022-07-17T01:00:33;5.57;;;1.70;;
18997;SDS011;9632;51.018;4.284;2022-07-17T01:02:58;2.95;;;1.60;;
18997;SDS011;9632;51.018;4.284;2022-07-17T01:05:24;4.47;;;1.73;;
18997;SDS011;9632;51.018;4.284;2022-07-17T01:07:50;5.00;;;1.58;;
18997;SDS011;9632;51.018;4.284;2022-07-17T01:10:18;5.78;;;1.63;;
18997;SDS011;9632;51.018;4.284;2022-07-17T01:12:44;2.50;;;1.60;;
18997;SDS011;9632;51.018;4.284;2022-07-17T01:15:11;4.65;;;1.75;;
18997;SDS011;9632;51.018;4.284;2022-07-17T01:17:37;4.95;;;1.95;;
18997;SDS011;9632;51.018;4.284;2022-07-17T01:20:04;4.93;;;1.65;;
18997;SDS011;9632;51.018;4.284;2022-07-17T01:22:32;4.47;;;2.05;;
18997;SDS011;9632;51.018;4.284;2022-07-17T01:24:57;3.67;;;1.83;;
18997;SDS011;9632;51.018;4.284;2022-07-17T01:27:23;4.22;;;1.77;;
18997;SDS011;9632;51.018;4.284;2022-07-17T01:29:49;10.60;;;1.90;;
18997;SDS011;9632;51.018;4.284;2022-07-17T01:32:14;9.88;;;2.03;;
18997;SDS011;9632;51.018;4.284;2022-07-17T01:34:40;5.47;;;1.83;;
18997;SDS011;9632;51.018;4.284;2022-07-17T01:37:06;4.32;;;1.50;;
18997;SDS011;9632;51.018;4.284;2022-07-17T01:39:31;3.88;;;1.33;;
18997;SDS011;9632;51.018;4.284;2022-07-17T01:42:18;4.18;;;1.70;;
18997;SDS011;9632;51.018;4.284;2022-07-17T01:44:45;3.35;;;1.55;;
18997;SDS011;9632;51.018;4.284;2022-07-17T01:47:12;4.50;;;1.50;;
18997;SDS011;9632;51.018;4.284;2022-07-17T01:49:42;4.95;;;2.00;;
18997;SDS011;9632;51.018;4.284;2022-07-17T01:52:09;3.30;;;1.40;;
18997;SDS011;9632;51.018;4.284;2022-07-17T01:54:34;4.15;;;1.48;;
18997;SDS011;9632;51.018;4.284;2022-07-17T01:57:00;6.68;;;1.73;;
18997;SDS011;9632;51.018;4.284;2022-07-17T01:59:25;3.78;;;1.50;;
18997;SDS011;9632;51.018;4.284;2022-07-17T02:01:51;4.65;;;1.52;;
18997;SDS011;9632;51.018;4.284;2022-07-17T02:04:17;2.28;;;1.20;;
18997;SDS011;9632;51.018;4.284;2022-07-17T02:06:42;3.88;;;1.63;;
18997;SDS011;9632;51.018;4.284;2022-07-17T02:09:08;3.35;;;1.25;;
18997;SDS011;9632;51.018;4.284;2022-07-17T02:11:33;3.80;;;1.40;;
18997;SDS011;9632;51.018;4.284;2022-07-17T02:13:59;3.30;;;1.60;;
18997;SDS011;9632;51.018;4.284;2022-07-17T02:16:25;5.15;;;1.80;;
18997;SDS011;9632;51.018;4.284;2022-07-17T02:18:51;2.78;;;1.50;;
18997;SDS011;9632;51.018;4.284;2022-07-17T02:21:16;2.50;;;1.52;;
18997;SDS011;9632;51.018;4.284;2022-07-17T02:23:42;5.32;;;1.60;;
18997;SDS011;9632;51.018;4.284;2022-07-17T02:26:08;3.70;;;1.70;;
18997;SDS011;9632;51.018;4.284;2022-07-17T02:28:34;2.83;;;1.40;;
18997;SDS011;9632;51.018;4.284;2022-07-17T02:31:00;4.10;;;1.80;;
18997;SDS011;9632;51.018;4.284;2022-07-17T02:33:26;3.25;;;1.80;;
18997;SDS011;9632;51.018;4.284;2022-07-17T02:35:52;3.58;;;1.70;;
18997;SDS011;9632;51.018;4.284;2022-07-17T02:38:17;2.60;;;1.58;;
18997;SDS011;9632;51.018;4.284;2022-07-17T02:40:43;4.05;;;1.67;;
18997;SDS011;9632;51.018;4.284;2022-07-17T02:43:09;4.30;;;1.60;;
18997;SDS011;9632;51.018;4.284;2022-07-17T02:45:35;3.22;;;1.65;;
18997;SDS011;9632;51.018;4.284;2022-07-17T02:48:01;4.03;;;1.50;;
18997;SDS011;9632;51.018;4.284;2022-07-17T02:50:26;3.53;;;1.77;;
18997;SDS011;9632;51.018;4.284;2022-07-17T02:52:52;2.78;;;1.50;;
18997;SDS011;9632;51.018;4.284;2022-07-17T02:55:19;4.82;;;1.85;;
18997;SDS011;9632;51.018;4.284;2022-07-17T02:57:45;5.20;;;1.90;;
18997;SDS011;9632;51.018;4.284;2022-07-17T03:00:14;14.35;;;2.33;;
18997;SDS011;9632;51.018;4.284;2022-07-17T03:02:42;13.13;;;1.92;;
18997;SDS011;9632;51.018;4.284;2022-07-17T03:05:08;17.55;;;2.83;;
18997;SDS011;9632;51.018;4.284;2022-07-17T03:07:34;14.07;;;2.50;;
18997;SDS011;9632;51.018;4.284;2022-07-17T03:10:00;11.73;;;2.58;;
18997;SDS011;9632;51.018;4.284;2022-07-17T03:12:26;7.53;;;1.92;;
18997;SDS011;9632;51.018;4.284;2022-07-17T03:14:52;4.65;;;1.55;;
18997;SDS011;9632;51.018;4.284;2022-07-17T03:17:18;3.78;;;1.52;;
18997;SDS011;9632;51.018;4.284;2022-07-17T03:19:43;6.13;;;1.90;;
18997;SDS011;9632;51.018;4.284;2022-07-17T03:22:09;4.90;;;2.00;;
18997;SDS011;9632;51.018;4.284;2022-07-17T03:24:35;7.75;;;2.28;;
18997;SDS011;9632;51.018;4.284;2022-07-17T03:27:00;9.20;;;2.55;;
18997;SDS011;9632;51.018;4.284;2022-07-17T03:29:26;12.13;;;2.85;;
18997;SDS011;9632;51.018;4.284;2022-07-17T03:31:52;8.70;;;2.58;;
18997;SDS011;9632;51.018;4.284;2022-07-17T03:34:18;5.50;;;2.42;;
18997;SDS011;9632;51.018;4.284;2022-07-17T03:36:43;5.72;;;2.20;;
18997;SDS011;9632;51.018;4.284;2022-07-17T03:39:09;9.32;;;2.85;;
18997;SDS011;9632;51.018;4.284;2022-07-17T03:41:35;5.93;;;2.22;;
18997;SDS011;9632;51.018;4.284;2022-07-17T03:44:01;9.63;;;2.40;;
18997;SDS011;9632;51.018;4.284;2022-07-17T03:46:27;7.45;;;2.28;;
18997;SDS011;9632;51.018;4.284;2022-07-17T03:48:52;4.43;;;2.05;;
18997;SDS011;9632;51.018;4.284;2022-07-17T03:51:18;6.18;;;2.20;;
18997;SDS011;9632;51.018;4.284;2022-07-17T03:53:43;4.43;;;2.30;;
18997;SDS011;9632;51.018;4.284;2022-07-17T03:56:09;6.35;;;2.25;;
18997;SDS011;9632;51.018;4.284;2022-07-17T03:58:35;7.82;;;2.10;;
18997;SDS011;9632;51.018;4.284;2022-07-17T04:01:01;5.15;;;1.83;;
18997;SDS011;9632;51.018;4.284;2022-07-17T04:03:27;5.45;;;2.08;;
18997;SDS011;9632;51.018;4.284;2022-07-17T04:05:53;4.88;;;2.25;;
18997;SDS011;9632;51.018;4.284;2022-07-17T04:08:19;5.63;;;2.03;;
18997;SDS011;9632;51.018;4.284;2022-07-17T04:10:44;9.43;;;2.45;;
18997;SDS011;9632;51.018;4.284;2022-07-17T04:13:10;3.42;;;1.85;;
18997;SDS011;9632;51.018;4.284;2022-07-17T04:15:36;4.63;;;2.10;;
18997;SDS011;9632;51.018;4.284;2022-07-17T04:18:14;5.18;;;2.22;;
18997;SDS011;9632;51.018;4.284;2022-07-17T04:20:41;4.50;;;1.85;;
18997;SDS011;9632;51.018;4.284;2022-07-17T04:23:07;4.57;;;1.90;;
18997;SDS011;9632;51.018;4.284;2022-07-17T04:25:32;6.18;;;1.73;;
18997;SDS011;9632;51.018;4.284;2022-07-17T04:27:58;5.07;;;2.20;;
18997;SDS011;9632;51.018;4.284;2022-07-17T04:30:23;4.78;;;1.80;;
18997;SDS011;9632;51.018;4.284;2022-07-17T04:32:49;4.07;;;2.05;;
18997;SDS011;9632;51.018;4.284;2022-07-17T04:35:15;7.20;;;2.20;;
18997;SDS011;9632;51.018;4.284;2022-07-17T04:37:40;4.65;;;2.17;;
18997;SDS011;9632;51.018;4.284;2022-07-17T04:40:06;4.70;;;1.63;;
18997;SDS011;9632;51.018;4.284;2022-07-17T04:42:32;7.28;;;2.33;;
18997;SDS011;9632;51.018;4.284;2022-07-17T04:44:58;6.18;;;1.80;;
18997;SDS011;9632;51.018;4.284;2022-07-17T04:47:23;6.97;;;1.85;;
18997;SDS011;9632;51.018;4.284;2022-07-17T04:49:49;7.20;;;2.40;;
18997;SDS011;9632;51.018;4.284;2022-07-17T04:52:15;15.38;;;2.63;;
18997;SDS011;9632;51.018;4.284;2022-07-17T04:54:40;12.27;;;2.70;;
18997;SDS011;9632;51.018;4.284;2022-07-17T04:57:06;9.65;;;2.30;;
18997;SDS011;9632;51.018;4.284;2022-07-17T04:59:32;6.60;;;1.95;;
18997;SDS011;9632;51.018;4.284;2022-07-17T05:01:57;5.57;;;1.73;;
18997;SDS011;9632;51.018;4.284;2022-07-17T05:04:23;5.55;;;1.80;;
18997;SDS011;9632;51.018;4.284;2022-07-17T05:06:49;7.88;;;1.98;;
18997;SDS011;9632;51.018;4.284;2022-07-17T05:09:15;6.57;;;2.00;;
18997;SDS011;9632;51.018;4.284;2022-07-17T05:11:40;5.80;;;2.17;;
18997;SDS011;9632;51.018;4.284;2022-07-17T05:14:06;7.35;;;1.90;;
18997;SDS011;9632;51.018;4.284;2022-07-17T05:16:32;11.35;;;2.95;;
18997;SDS011;9632;51.018;4.284;2022-07-17T05:18:58;5.55;;;2.33;;
18997;SDS011;9632;51.018;4.284;2022-07-17T05:21:23;7.93;;;2.55;;
18997;SDS011;9632;51.018;4.284;2022-07-17T05:23:49;5.13;;;2.08;;
18997;SDS011;9632;51.018;4.284;2022-07-17T05:26:15;6.30;;;1.98;;
18997;SDS011;9632;51.018;4.284;2022-07-17T05:28:40;4.28;;;2.00;;
18997;SDS011;9632;51.018;4.284;2022-07-17T05:31:06;6.53;;;1.90;;
18997;SDS011;9632;51.018;4.284;2022-07-17T05:33:32;11.48;;;2.83;;
18997;SDS011;9632;51.018;4.284;2022-07-17T05:35:58;3.90;;;1.60;;
18997;SDS011;9632;51.018;4.284;2022-07-17T05:38:23;9.43;;;2.63;;
18997;SDS011;9632;51.018;4.284;2022-07-17T05:40:49;10.52;;;2.45;;
18997;SDS011;9632;51.018;4.284;2022-07-17T05:43:14;8.00;;;1.95;;
18997;SDS011;9632;51.018;4.284;2022-07-17T05:45:40;3.70;;;1.88;;
18997;SDS011;9632;51.018;4.284;2022-07-17T05:48:06;6.90;;;2.33;;
18997;SDS011;9632;51.018;4.284;2022-07-17T05:50:33;4.00;;;2.10;;
18997;SDS011;9632;51.018;4.284;2022-07-17T05:52:59;7.97;;;2.10;;
18997;SDS011;9632;51.018;4.284;2022-07-17T05:55:25;9.77;;;2.72;;
18997;SDS011;9632;51.018;4.284;2022-07-17T05:57:50;8.10;;;2.28;;
18997;SDS011;9632;51.018;4.284;2022-07-17T06:00:16;7.80;;;2.13;;
18997;SDS011;9632;51.018;4.284;2022-07-17T06:02:43;4.72;;;1.90;;
18997;SDS011;9632;51.018;4.284;2022-07-17T06:05:09;9.27;;;2.28;;
18997;SDS011;9632;51.018;4.284;2022-07-17T06:07:35;11.38;;;2.45;;
18997;SDS011;9632;51.018;4.284;2022-07-17T06:10:02;6.00;;;1.88;;
18997;SDS011;9632;51.018;4.284;2022-07-17T06:12:28;8.70;;;2.22;;
18997;SDS011;9632;51.018;4.284;2022-07-17T06:14:54;6.75;;;2.28;;
18997;SDS011;9632;51.018;4.284;2022-07-17T06:17:19;6.22;;;2.00;;
18997;SDS011;9632;51.018;4.284;2022-07-17T06:19:45;7.72;;;2.25;;
18997;SDS011;9632;51.018;4.284;2022-07-17T06:22:11;10.65;;;2.50;;
18997;SDS011;9632;51.018;4.284;2022-07-17T06:24:36;6.30;;;2.05;;
18997;SDS011;9632;51.018;4.284;2022-07-17T06:27:02;9.48;;;2.00;;
18997;SDS011;9632;51.018;4.284;2022-07-17T06:29:28;6.30;;;2.00;;
18997;SDS011;9632;51.018;4.284;2022-07-17T06:31:53;8.77;;;1.92;;
18997;SDS011;9632;51.018;4.284;2022-07-17T06:34:19;6.47;;;2.15;;
18997;SDS011;9632;51.018;4.284;2022-07-17T06:36:44;7.80;;;1.90;;
18997;SDS011;9632;51.018;4.284;2022-07-17T06:39:11;8.95;;;2.08;;
18997;SDS011;9632;51.018;4.284;2022-07-17T06:41:37;7.65;;;2.30;;
18997;SDS011;9632;51.018;4.284;2022-07-17T06:44:02;5.88;;;1.65;;
18997;SDS011;9632;51.018;4.284;2022-07-17T06:46:28;6.93;;;2.05;;
18997;SDS011;9632;51.018;4.284;2022-07-17T06:48:54;8.13;;;2.08;;
18997;SDS011;9632;51.018;4.284;2022-07-17T06:51:19;5.82;;;1.90;;
18997;SDS011;9632;51.018;4.284;2022-07-17T06:53:45;6.60;;;2.15;;
18997;SDS011;9632;51.018;4.284;2022-07-17T06:56:11;5.53;;;1.83;;
18997;SDS011;9632;51.018;4.284;2022-07-17T06:58:36;7.40;;;2.13;;
18997;SDS011;9632;51.018;4.284;2022-07-17T07:01:02;7.80;;;2.15;;
18997;SDS011;9632;51.018;4.284;2022-07-17T07:03:27;5.20;;;1.70;;
18997;SDS011;9632;51.018;4.284;2022-07-17T07:05:53;5.20;;;1.52;;
18997;SDS011;9632;51.018;4.284;2022-07-17T07:08:20;8.55;;;1.73;;
18997;SDS011;9632;51.018;4.284;2022-07-17T07:10:45;5.93;;;1.80;;
18997;SDS011;9632;51.018;4.284;2022-07-17T07:13:11;5.03;;;1.48;;
18997;SDS011;9632;51.018;4.284;2022-07-17T07:15:37;6.78;;;1.40;;
18997;SDS011;9632;51.018;4.284;2022-07-17T07:18:03;4.60;;;1.67;;
18997;SDS011;9632;51.018;4.284;2022-07-17T07:20:29;5.97;;;1.50;;
18997;SDS011;9632;51.018;4.284;2022-07-17T07:22:54;7.70;;;1.42;;
18997;SDS011;9632;51.018;4.284;2022-07-17T07:25:20;8.27;;;1.77;;
18997;SDS011;9632;51.018;4.284;2022-07-17T07:27:46;6.28;;;1.45;;
18997;SDS011;9632;51.018;4.284;2022-07-17T07:30:12;5.35;;;1.20;;
18997;SDS011;9632;51.018;4.284;2022-07-17T07:32:38;5.68;;;1.50;;
18997;SDS011;9632;51.018;4.284;2022-07-17T07:35:04;6.55;;;1.60;;
18997;SDS011;9632;51.018;4.284;2022-07-17T07:37:31;5.88;;;1.13;;
18997;SDS011;9632;51.018;4.284;2022-07-17T07:39:57;7.95;;;1.45;;
18997;SDS011;9632;51.018;4.284;2022-07-17T07:42:24;7.30;;;1.45;;
18997;SDS011;9632;51.018;4.284;2022-07-17T07:44:50;3.92;;;1.23;;
18997;SDS011;9632;51.018;4.284;2022-07-17T07:47:15;5.63;;;1.27;;
18997;SDS011;9632;51.018;4.284;2022-07-17T07:49:41;6.30;;;1.70;;
18997;SDS011;9632;51.018;4.284;2022-07-17T07:52:07;5.05;;;1.17;;
18997;SDS011;9632;51.018;4.284;2022-07-17T07:54:32;5.13;;;1.23;;
18997;SDS011;9632;51.018;4.284;2022-07-17T07:56:58;3.45;;;1.10;;
18997;SDS011;9632;51.018;4.284;2022-07-17T07:59:24;9.85;;;1.20;;
18997;SDS011;9632;51.018;4.284;2022-07-17T08:01:50;4.30;;;1.00;;
18997;SDS011;9632;51.018;4.284;2022-07-17T08:04:16;4.60;;;0.93;;
18997;SDS011;9632;51.018;4.284;2022-07-17T08:06:41;6.88;;;1.13;;
18997;SDS011;9632;51.018;4.284;2022-07-17T08:09:07;7.35;;;1.30;;
18997;SDS011;9632;51.018;4.284;2022-07-17T08:11:33;3.63;;;0.93;;
18997;SDS011;9632;51.018;4.284;2022-07-17T08:13:58;6.00;;;1.00;;
18997;SDS011;9632;51.018;4.284;2022-07-17T08:16:25;4.22;;;1.10;;
18997;SDS011;9632;51.018;4.284;2022-07-17T08:18:51;4.20;;;0.95;;
18997;SDS011;9632;51.018;4.284;2022-07-17T08:21:16;4.57;;;0.98;;
18997;SDS011;9632;51.018;4.284;2022-07-17T08:23:42;3.90;;;0.80;;
18997;SDS011;9632;51.018;4.284;2022-07-17T08:26:07;5.68;;;1.27;;
18997;SDS011;9632;51.018;4.284;2022-07-17T08:28:34;10.25;;;1.20;;
18997;SDS011;9632;51.018;4.284;2022-07-17T08:30:59;5.70;;;0.88;;
18997;SDS011;9632;51.018;4.284;2022-07-17T08:33:25;3.95;;;0.88;;
18997;SDS011;9632;51.018;4.284;2022-07-17T08:35:50;5.95;;;1.13;;
18997;SDS011;9632;51.018;4.284;2022-07-17T08:38:16;6.68;;;1.17;;
18997;SDS011;9632;51.018;4.284;2022-07-17T08:40:42;5.93;;;0.82;;
18997;SDS011;9632;51.018;4.284;2022-07-17T08:43:08;5.78;;;0.75;;
18997;SDS011;9632;51.018;4.284;2022-07-17T08:45:35;5.45;;;0.90;;
18997;SDS011;9632;51.018;4.284;2022-07-17T08:48:01;5.38;;;0.90;;
18997;SDS011;9632;51.018;4.284;2022-07-17T08:50:30;4.72;;;1.10;;
18997;SDS011;9632;51.018;4.284;2022-07-17T08:53:00;6.15;;;0.95;;
18997;SDS011;9632;51.018;4.284;2022-07-17T08:55:27;4.88;;;0.73;;
18997;SDS011;9632;51.018;4.284;2022-07-17T08:57:53;2.90;;;0.90;;
18997;SDS011;9632;51.018;4.284;2022-07-17T09:00:20;6.30;;;0.88;;
18997;SDS011;9632;51.018;4.284;2022-07-17T09:02:58;9.38;;;1.00;;
18997;SDS011;9632;51.018;4.284;2022-07-17T09:05:32;8.00;;;1.30;;
18997;SDS011;9632;51.018;4.284;2022-07-17T09:08:00;5.43;;;1.10;;
18997;SDS011;9632;51.018;4.284;2022-07-17T09:10:30;4.93;;;1.05;;
18997;SDS011;9632;51.018;4.284;2022-07-17T09:12:56;3.45;;;1.00;;
18997;SDS011;9632;51.018;4.284;2022-07-17T09:15:23;6.13;;;1.00;;
18997;SDS011;9632;51.018;4.284;2022-07-17T09:17:52;4.35;;;1.00;;
18997;SDS011;9632;51.018;4.284;2022-07-17T09:20:20;4.05;;;1.00;;
18997;SDS011;9632;51.018;4.284;2022-07-17T09:23:00;4.68;;;1.00;;
18997;SDS011;9632;51.018;4.284;2022-07-17T09:28:02;3.75;;;0.93;;
18997;SDS011;9632;51.018;4.284;2022-07-17T09:30:30;4.10;;;0.90;;
18997;SDS011;9632;51.018;4.284;2022-07-17T09:32:57;4.72;;;1.00;;
18997;SDS011;9632;51.018;4.284;2022-07-17T09:35:23;3.38;;;1.00;;
18997;SDS011;9632;51.018;4.284;2022-07-17T09:37:51;4.13;;;0.70;;
18997;SDS011;9632;51.018;4.284;2022-07-17T09:40:17;9.52;;;1.40;;
18997;SDS011;9632;51.018;4.284;2022-07-17T09:43:03;4.30;;;1.30;;
18997;SDS011;9632;51.018;4.284;2022-07-17T09:45:28;3.50;;;0.90;;
18997;SDS011;9632;51.018;4.284;2022-07-17T09:47:56;3.45;;;1.00;;
18997;SDS011;9632;51.018;4.284;2022-07-17T09:50:22;5.95;;;1.30;;
18997;SDS011;9632;51.018;4.284;2022-07-17T09:52:50;4.05;;;1.10;;
18997;SDS011;9632;51.018;4.284;2022-07-17T09:55:20;3.08;;;1.05;;
18997;SDS011;9632;51.018;4.284;2022-07-17T09:57:47;7.15;;;1.48;;
18997;SDS011;9632;51.018;4.284;2022-07-17T10:00:13;6.55;;;1.33;;
18997;SDS011;9632;51.018;4.284;2022-07-17T10:02:43;4.28;;;1.52;;
18997;SDS011;9632;51.018;4.284;2022-07-17T10:05:09;5.20;;;1.25;;
18997;SDS011;9632;51.018;4.284;2022-07-17T10:07:43;5.20;;;1.40;;
18997;SDS011;9632;51.018;4.284;2022-07-17T10:10:11;7.78;;;1.67;;
18997;SDS011;9632;51.018;4.284;2022-07-17T10:12:45;5.28;;;1.30;;
18997;SDS011;9632;51.018;4.284;2022-07-17T10:15:13;4.05;;;1.30;;
18997;SDS011;9632;51.018;4.284;2022-07-17T10:17:40;6.07;;;1.38;;
18997;SDS011;9632;51.018;4.284;2022-07-17T10:20:06;4.43;;;1.20;;
18997;SDS011;9632;51.018;4.284;2022-07-17T10:22:41;3.80;;;1.20;;
18997;SDS011;9632;51.018;4.284;2022-07-17T10:25:12;6.95;;;1.55;;
18997;SDS011;9632;51.018;4.284;2022-07-17T10:27:45;4.60;;;1.33;;
18997;SDS011;9632;51.018;4.284;2022-07-17T10:30:12;3.45;;;1.55;;
18997;SDS011;9632;51.018;4.284;2022-07-17T10:32:50;5.35;;;1.85;;
18997;SDS011;9632;51.018;4.284;2022-07-17T10:35:18;4.43;;;1.40;;
18997;SDS011;9632;51.018;4.284;2022-07-17T10:37:43;2.80;;;1.60;;
18997;SDS011;9632;51.018;4.284;2022-07-17T10:45:16;5.40;;;1.73;;
18997;SDS011;9632;51.018;4.284;2022-07-17T10:47:50;3.47;;;1.30;;
18997;SDS011;9632;51.018;4.284;2022-07-17T10:55:35;5.47;;;1.90;;
18997;SDS011;9632;51.018;4.284;2022-07-17T10:58:03;6.10;;;1.77;;
18997;SDS011;9632;51.018;4.284;2022-07-17T11:00:38;5.18;;;1.60;;
18997;SDS011;9632;51.018;4.284;2022-07-17T11:03:08;7.32;;;1.75;;
18997;SDS011;9632;51.018;4.284;2022-07-17T11:05:37;5.80;;;1.70;;
18997;SDS011;9632;51.018;4.284;2022-07-17T11:08:03;2.40;;;1.33;;
18997;SDS011;9632;51.018;4.284;2022-07-17T11:10:34;4.82;;;1.90;;
18997;SDS011;9632;51.018;4.284;2022-07-17T11:13:12;6.10;;;1.67;;
18997;SDS011;9632;51.018;4.284;2022-07-17T11:15:43;6.78;;;1.95;;
18997;SDS011;9632;51.018;4.284;2022-07-17T11:18:13;5.43;;;1.90;;
18997;SDS011;9632;51.018;4.284;2022-07-17T11:21:01;3.55;;;1.70;;
18997;SDS011;9632;51.018;4.284;2022-07-17T11:23:30;4.00;;;1.55;;
18997;SDS011;9632;51.018;4.284;2022-07-17T11:28:29;4.65;;;1.70;;
18997;SDS011;9632;51.018;4.284;2022-07-17T11:31:00;3.75;;;1.60;;
18997;SDS011;9632;51.018;4.284;2022-07-17T11:33:29;3.55;;;1.60;;
18997;SDS011;9632;51.018;4.284;2022-07-17T11:35:54;3.25;;;1.60;;
18997;SDS011;9632;51.018;4.284;2022-07-17T11:38:27;4.00;;;2.00;;
18997;SDS011;9632;51.018;4.284;2022-07-17T11:40:54;5.47;;;2.25;;
18997;SDS011;9632;51.018;4.284;2022-07-17T11:43:20;4.53;;;1.95;;
18997;SDS011;9632;51.018;4.284;2022-07-17T11:45:46;5.15;;;2.45;;
18997;SDS011;9632;51.018;4.284;2022-07-17T11:48:12;6.72;;;2.33;;
18997;SDS011;9632;51.018;4.284;2022-07-17T11:50:38;6.80;;;2.25;;
18997;SDS011;9632;51.018;4.284;2022-07-17T11:53:04;5.50;;;2.30;;
18997;SDS011;9632;51.018;4.284;2022-07-17T11:55:37;3.30;;;2.17;;
18997;SDS011;9632;51.018;4.284;2022-07-17T11:58:04;5.35;;;2.58;;
18997;SDS011;9632;51.018;4.284;2022-07-17T12:00:30;5.28;;;2.47;;
18997;SDS011;9632;51.018;4.284;2022-07-17T12:03:00;5.43;;;2.58;;
18997;SDS011;9632;51.018;4.284;2022-07-17T12:05:31;5.15;;;2.40;;
18997;SDS011;9632;51.018;4.284;2022-07-17T12:07:58;4.50;;;2.45;;
18997;SDS011;9632;51.018;4.284;2022-07-17T12:10:25;5.57;;;2.75;;
18997;SDS011;9632;51.018;4.284;2022-07-17T12:12:53;5.18;;;3.00;;
18997;SDS011;9632;51.018;4.284;2022-07-17T12:15:39;6.18;;;2.92;;
18997;SDS011;9632;51.018;4.284;2022-07-17T12:18:19;6.30;;;2.95;;
18997;SDS011;9632;51.018;4.284;2022-07-17T12:20:48;6.07;;;2.80;;
18997;SDS011;9632;51.018;4.284;2022-07-17T12:23:28;6.95;;;2.90;;
18997;SDS011;9632;51.018;4.284;2022-07-17T12:28:35;8.20;;;2.78;;
18997;SDS011;9632;51.018;4.284;2022-07-17T12:31:02;6.15;;;2.45;;
18997;SDS011;9632;51.018;4.284;2022-07-17T12:33:28;6.38;;;3.17;;
18997;SDS011;9632;51.018;4.284;2022-07-17T12:35:54;6.13;;;3.00;;
18997;SDS011;9632;51.018;4.284;2022-07-17T12:38:20;4.90;;;2.50;;
18997;SDS011;9632;51.018;4.284;2022-07-17T12:40:45;4.55;;;2.50;;
18997;SDS011;9632;51.018;4.284;2022-07-17T12:43:11;5.15;;;2.90;;
18997;SDS011;9632;51.018;4.284;2022-07-17T12:45:37;5.78;;;2.60;;
18997;SDS011;9632;51.018;4.284;2022-07-17T12:48:02;4.57;;;2.42;;
18997;SDS011;9632;51.018;4.284;2022-07-17T12:50:28;4.25;;;2.25;;
18997;SDS011;9632;51.018;4.284;2022-07-17T12:52:55;5.68;;;2.15;;
18997;SDS011;9632;51.018;4.284;2022-07-17T12:55:21;4.30;;;2.28;;
18997;SDS011;9632;51.018;4.284;2022-07-17T12:57:47;6.13;;;2.45;;
18997;SDS011;9632;51.018;4.284;2022-07-17T13:00:13;5.10;;;2.30;;
18997;SDS011;9632;51.018;4.284;2022-07-17T13:02:39;6.40;;;2.60;;
18997;SDS011;9632;51.018;4.284;2022-07-17T13:05:05;4.90;;;2.85;;
18997;SDS011;9632;51.018;4.284;2022-07-17T13:07:31;7.40;;;2.90;;
18997;SDS011;9632;51.018;4.284;2022-07-17T13:09:57;4.50;;;2.53;;
18997;SDS011;9632;51.018;4.284;2022-07-17T13:12:22;4.55;;;2.45;;
18997;SDS011;9632;51.018;4.284;2022-07-17T13:14:48;5.88;;;2.28;;
18997;SDS011;9632;51.018;4.284;2022-07-17T13:17:14;7.65;;;3.03;;
18997;SDS011;9632;51.018;4.284;2022-07-17T13:19:40;4.78;;;2.88;;
18997;SDS011;9632;51.018;4.284;2022-07-17T13:22:06;3.45;;;2.42;;
18997;SDS011;9632;51.018;4.284;2022-07-17T13:24:32;5.75;;;2.70;;
18997;SDS011;9632;51.018;4.284;2022-07-17T13:26:58;5.50;;;2.45;;
18997;SDS011;9632;51.018;4.284;2022-07-17T13:29:24;4.18;;;2.50;;
18997;SDS011;9632;51.018;4.284;2022-07-17T13:31:53;4.57;;;2.53;;
18997;SDS011;9632;51.018;4.284;2022-07-17T13:34:19;3.67;;;2.50;;
18997;SDS011;9632;51.018;4.284;2022-07-17T13:36:46;5.57;;;2.58;;
18997;SDS011;9632;51.018;4.284;2022-07-17T13:39:12;4.18;;;2.58;;
18997;SDS011;9632;51.018;4.284;2022-07-17T13:41:38;4.05;;;2.65;;
18997;SDS011;9632;51.018;4.284;2022-07-17T13:44:06;8.18;;;2.80;;
18997;SDS011;9632;51.018;4.284;2022-07-17T13:46:32;5.95;;;2.80;;
18997;SDS011;9632;51.018;4.284;2022-07-17T13:48:58;6.22;;;2.65;;
18997;SDS011;9632;51.018;4.284;2022-07-17T13:51:24;6.50;;;2.80;;
18997;SDS011;9632;51.018;4.284;2022-07-17T13:53:51;4.45;;;2.50;;
18997;SDS011;9632;51.018;4.284;2022-07-17T13:56:17;7.72;;;2.90;;
18997;SDS011;9632;51.018;4.284;2022-07-17T13:58:43;5.10;;;2.40;;
18997;SDS011;9632;51.018;4.284;2022-07-17T14:01:10;4.72;;;2.58;;
18997;SDS011;9632;51.018;4.284;2022-07-17T14:03:37;5.57;;;2.88;;
18997;SDS011;9632;51.018;4.284;2022-07-17T14:06:02;6.25;;;2.78;;
18997;SDS011;9632;51.018;4.284;2022-07-17T14:08:28;4.32;;;2.58;;
18997;SDS011;9632;51.018;4.284;2022-07-17T14:10:54;6.47;;;2.70;;
18997;SDS011;9632;51.018;4.284;2022-07-17T14:13:19;5.30;;;2.80;;
18997;SDS011;9632;51.018;4.284;2022-07-17T14:15:45;5.43;;;2.67;;
18997;SDS011;9632;51.018;4.284;2022-07-17T14:18:10;7.10;;;2.30;;
18997;SDS011;9632;51.018;4.284;2022-07-17T14:20:37;5.38;;;2.65;;
18997;SDS011;9632;51.018;4.284;2022-07-17T14:23:02;4.30;;;2.40;;
18997;SDS011;9632;51.018;4.284;2022-07-17T14:25:28;6.25;;;2.30;;
18997;SDS011;9632;51.018;4.284;2022-07-17T14:27:54;5.43;;;2.50;;
18997;SDS011;9632;51.018;4.284;2022-07-17T14:30:20;4.95;;;2.63;;
18997;SDS011;9632;51.018;4.284;2022-07-17T14:32:45;6.78;;;2.13;;
18997;SDS011;9632;51.018;4.284;2022-07-17T14:35:11;3.85;;;2.40;;
18997;SDS011;9632;51.018;4.284;2022-07-17T14:37:37;4.63;;;2.60;;
18997;SDS011;9632;51.018;4.284;2022-07-17T14:40:03;3.65;;;2.28;;
18997;SDS011;9632;51.018;4.284;2022-07-17T14:42:29;4.75;;;2.30;;
18997;SDS011;9632;51.018;4.284;2022-07-17T14:44:55;6.38;;;2.00;;
18997;SDS011;9632;51.018;4.284;2022-07-17T14:47:21;8.18;;;2.30;;
18997;SDS011;9632;51.018;4.284;2022-07-17T14:49:47;3.65;;;2.28;;
18997;SDS011;9632;51.018;4.284;2022-07-17T14:52:12;3.60;;;1.65;;
18997;SDS011;9632;51.018;4.284;2022-07-17T14:54:38;3.28;;;2.17;;
18997;SDS011;9632;51.018;4.284;2022-07-17T14:57:03;6.68;;;2.30;;
18997;SDS011;9632;51.018;4.284;2022-07-17T14:59:29;6.80;;;2.47;;
18997;SDS011;9632;51.018;4.284;2022-07-17T15:01:55;10.70;;;2.40;;
18997;SDS011;9632;51.018;4.284;2022-07-17T15:04:20;3.67;;;2.10;;
18997;SDS011;9632;51.018;4.284;2022-07-17T15:06:46;4.88;;;2.08;;
18997;SDS011;9632;51.018;4.284;2022-07-17T15:09:11;4.05;;;2.30;;
18997;SDS011;9632;51.018;4.284;2022-07-17T15:11:37;6.90;;;2.13;;
18997;SDS011;9632;51.018;4.284;2022-07-17T15:14:04;5.20;;;2.10;;
18997;SDS011;9632;51.018;4.284;2022-07-17T15:16:29;7.78;;;2.40;;